sensor_id;sensor_type;location;lat;lon;timestamp;P1;durP1;ratioP1;P2;durP2;ratioP2
75866;SDS011;64513;56.258;43.980;2022-11-20T00:01:12;9.93;;;3.30;;
75866;SDS011;64513;56.258;43.980;2022-11-20T00:03:56;8.38;;;3.02;;
75866;SDS011;64513;56.258;43.980;2022-11-20T00:06:22;8.50;;;3.03;;
75866;SDS011;64513;56.258;43.980;2022-11-20T00:08:46;7.78;;;2.83;;
75866;SDS011;64513;56.258;43.980;2022-11-20T00:11:12;9.20;;;3.50;;
75866;SDS011;64513;56.258;43.980;2022-11-20T00:13:38;9.78;;;3.55;;
75866;SDS011;64513;56.258;43.980;2022-11-20T00:16:03;9.45;;;3.58;;
75866;SDS011;64513;56.258;43.980;2022-11-20T00:18:28;8.23;;;3.20;;
75866;SDS011;64513;56.258;43.980;2022-11-20T00:20:53;10.75;;;3.62;;
75866;SDS011;64513;56.258;43.980;2022-11-20T00:23:18;9.48;;;3.50;;
75866;SDS011;64513;56.258;43.980;2022-11-20T00:25:43;8.68;;;3.22;;
75866;SDS011;64513;56.258;43.980;2022-11-20T00:28:08;10.90;;;3.45;;
75866;SDS011;64513;56.258;43.980;2022-11-20T00:30:32;9.60;;;3.50;;
75866;SDS011;64513;56.258;43.980;2022-11-20T00:32:56;8.73;;;3.30;;
75866;SDS011;64513;56.258;43.980;2022-11-20T00:35:20;7.97;;;3.22;;
75866;SDS011;64513;56.258;43.980;2022-11-20T00:37:44;8.23;;;3.42;;
75866;SDS011;64513;56.258;43.980;2022-11-20T00:40:09;9.33;;;2.98;;
75866;SDS011;64513;56.258;43.980;2022-11-20T00:42:34;7.47;;;3.30;;
75866;SDS011;64513;56.258;43.980;2022-11-20T00:44:58;8.48;;;3.15;;
75866;SDS011;64513;56.258;43.980;2022-11-20T00:47:22;10.05;;;3.40;;
75866;SDS011;64513;56.258;43.980;2022-11-20T00:49:46;8.60;;;3.45;;
75866;SDS011;64513;56.258;43.980;2022-11-20T00:52:10;10.68;;;3.40;;
75866;SDS011;64513;56.258;43.980;2022-11-20T00:54:34;9.37;;;3.40;;
75866;SDS011;64513;56.258;43.980;2022-11-20T00:56:58;7.90;;;2.87;;
75866;SDS011;64513;56.258;43.980;2022-11-20T00:59:23;10.43;;;3.47;;
75866;SDS011;64513;56.258;43.980;2022-11-20T01:01:47;8.55;;;3.12;;
75866;SDS011;64513;56.258;43.980;2022-11-20T01:04:11;8.08;;;3.30;;
75866;SDS011;64513;56.258;43.980;2022-11-20T01:06:36;8.77;;;3.40;;
75866;SDS011;64513;56.258;43.980;2022-11-20T01:09:03;10.35;;;3.35;;
75866;SDS011;64513;56.258;43.980;2022-11-20T01:11:47;8.23;;;3.10;;
75866;SDS011;64513;56.258;43.980;2022-11-20T01:16:55;10.72;;;4.00;;
75866;SDS011;64513;56.258;43.980;2022-11-20T01:19:20;10.03;;;3.47;;
75866;SDS011;64513;56.258;43.980;2022-11-20T01:21:47;10.70;;;3.92;;
75866;SDS011;64513;56.258;43.980;2022-11-20T01:24:13;9.35;;;3.72;;
75866;SDS011;64513;56.258;43.980;2022-11-20T01:26:40;8.58;;;3.00;;
75866;SDS011;64513;56.258;43.980;2022-11-20T01:29:06;9.68;;;3.58;;
75866;SDS011;64513;56.258;43.980;2022-11-20T01:31:33;8.77;;;3.20;;
75866;SDS011;64513;56.258;43.980;2022-11-20T01:33:59;10.40;;;3.87;;
75866;SDS011;64513;56.258;43.980;2022-11-20T01:36:26;8.95;;;3.35;;
75866;SDS011;64513;56.258;43.980;2022-11-20T01:41:19;8.75;;;3.35;;
75866;SDS011;64513;56.258;43.980;2022-11-20T01:44:04;8.13;;;3.30;;
75866;SDS011;64513;56.258;43.980;2022-11-20T01:46:28;6.53;;;2.80;;
75866;SDS011;64513;56.258;43.980;2022-11-20T01:48:55;9.83;;;3.70;;
75866;SDS011;64513;56.258;43.980;2022-11-20T01:51:24;8.33;;;3.33;;
75866;SDS011;64513;56.258;43.980;2022-11-20T01:53:48;10.40;;;4.10;;
75866;SDS011;64513;56.258;43.980;2022-11-20T01:56:15;8.93;;;3.33;;
75866;SDS011;64513;56.258;43.980;2022-11-20T01:58:42;8.18;;;3.20;;
75866;SDS011;64513;56.258;43.980;2022-11-20T02:01:07;10.23;;;3.37;;
75866;SDS011;64513;56.258;43.980;2022-11-20T02:03:31;10.65;;;2.95;;
75866;SDS011;64513;56.258;43.980;2022-11-20T02:06:30;11.75;;;3.67;;
75866;SDS011;64513;56.258;43.980;2022-11-20T02:08:41;12.57;;;3.40;;
75866;SDS011;64513;56.258;43.980;2022-11-20T02:11:05;8.43;;;3.20;;
75866;SDS011;64513;56.258;43.980;2022-11-20T02:13:30;11.35;;;3.40;;
75866;SDS011;64513;56.258;43.980;2022-11-20T02:16:16;10.45;;;3.33;;
75866;SDS011;64513;56.258;43.980;2022-11-20T02:19:02;11.48;;;3.08;;
75866;SDS011;64513;56.258;43.980;2022-11-20T02:24:32;10.18;;;3.20;;
75866;SDS011;64513;56.258;43.980;2022-11-20T02:37:59;8.80;;;3.37;;
75866;SDS011;64513;56.258;43.980;2022-11-20T02:40:25;8.65;;;3.35;;
75866;SDS011;64513;56.258;43.980;2022-11-20T02:45:34;8.48;;;3.33;;
75866;SDS011;64513;56.258;43.980;2022-11-20T02:47:58;7.50;;;3.23;;
75866;SDS011;64513;56.258;43.980;2022-11-20T02:50:22;9.43;;;3.58;;
75866;SDS011;64513;56.258;43.980;2022-11-20T02:52:47;8.65;;;3.40;;
75866;SDS011;64513;56.258;43.980;2022-11-20T02:55:11;9.25;;;3.35;;
75866;SDS011;64513;56.258;43.980;2022-11-20T02:57:35;9.98;;;3.40;;
75866;SDS011;64513;56.258;43.980;2022-11-20T02:59:59;9.27;;;3.50;;
75866;SDS011;64513;56.258;43.980;2022-11-20T03:02:24;9.05;;;3.50;;
75866;SDS011;64513;56.258;43.980;2022-11-20T03:04:48;8.95;;;3.47;;
75866;SDS011;64513;56.258;43.980;2022-11-20T03:07:12;9.80;;;3.80;;
75866;SDS011;64513;56.258;43.980;2022-11-20T03:09:36;10.32;;;3.75;;
75866;SDS011;64513;56.258;43.980;2022-11-20T03:12:00;9.33;;;3.67;;
75866;SDS011;64513;56.258;43.980;2022-11-20T03:14:24;9.68;;;3.72;;
75866;SDS011;64513;56.258;43.980;2022-11-20T03:16:49;10.60;;;4.03;;
75866;SDS011;64513;56.258;43.980;2022-11-20T03:19:13;10.53;;;3.75;;
75866;SDS011;64513;56.258;43.980;2022-11-20T03:21:37;10.25;;;3.35;;
75866;SDS011;64513;56.258;43.980;2022-11-20T03:24:02;11.33;;;3.87;;
75866;SDS011;64513;56.258;43.980;2022-11-20T03:26:26;10.45;;;3.52;;
75866;SDS011;64513;56.258;43.980;2022-11-20T03:28:51;12.28;;;3.95;;
75866;SDS011;64513;56.258;43.980;2022-11-20T03:31:37;8.95;;;3.50;;
75866;SDS011;64513;56.258;43.980;2022-11-20T03:34:03;11.18;;;3.75;;
75866;SDS011;64513;56.258;43.980;2022-11-20T03:36:27;9.40;;;3.10;;
75866;SDS011;64513;56.258;43.980;2022-11-20T03:41:37;9.05;;;3.50;;
75866;SDS011;64513;56.258;43.980;2022-11-20T03:44:04;8.43;;;3.05;;
75866;SDS011;64513;56.258;43.980;2022-11-20T03:46:29;10.13;;;3.77;;
75866;SDS011;64513;56.258;43.980;2022-11-20T03:48:54;12.97;;;3.63;;
75866;SDS011;64513;56.258;43.980;2022-11-20T03:51:20;8.15;;;3.10;;
75866;SDS011;64513;56.258;43.980;2022-11-20T03:53:46;9.45;;;3.50;;
75866;SDS011;64513;56.258;43.980;2022-11-20T03:56:11;8.30;;;3.37;;
75866;SDS011;64513;56.258;43.980;2022-11-20T03:58:37;11.40;;;3.83;;
75866;SDS011;64513;56.258;43.980;2022-11-20T04:04:06;9.43;;;3.50;;
75866;SDS011;64513;56.258;43.980;2022-11-20T04:06:33;10.60;;;3.83;;
75866;SDS011;64513;56.258;43.980;2022-11-20T04:08:58;10.72;;;3.52;;
75866;SDS011;64513;56.258;43.980;2022-11-20T04:14:11;9.90;;;3.60;;
75866;SDS011;64513;56.258;43.980;2022-11-20T04:16:52;9.45;;;3.42;;
75866;SDS011;64513;56.258;43.980;2022-11-20T04:19:16;9.03;;;3.27;;
75866;SDS011;64513;56.258;43.980;2022-11-20T04:21:41;10.28;;;3.70;;
75866;SDS011;64513;56.258;43.980;2022-11-20T04:24:06;7.75;;;3.25;;
75866;SDS011;64513;56.258;43.980;2022-11-20T04:26:31;13.37;;;3.63;;
75866;SDS011;64513;56.258;43.980;2022-11-20T04:28:56;9.83;;;3.30;;
75866;SDS011;64513;56.258;43.980;2022-11-20T04:33:49;9.75;;;3.95;;
75866;SDS011;64513;56.258;43.980;2022-11-20T04:38:59;9.43;;;3.23;;
75866;SDS011;64513;56.258;43.980;2022-11-20T04:41:27;8.28;;;3.58;;
75866;SDS011;64513;56.258;43.980;2022-11-20T04:43:54;10.32;;;3.83;;
75866;SDS011;64513;56.258;43.980;2022-11-20T04:46:21;7.92;;;3.30;;
75866;SDS011;64513;56.258;43.980;2022-11-20T04:48:46;11.38;;;3.80;;
75866;SDS011;64513;56.258;43.980;2022-11-20T04:51:10;11.80;;;3.90;;
75866;SDS011;64513;56.258;43.980;2022-11-20T04:53:35;9.45;;;3.40;;
75866;SDS011;64513;56.258;43.980;2022-11-20T04:56:00;9.85;;;3.65;;
75866;SDS011;64513;56.258;43.980;2022-11-20T04:58:26;9.15;;;3.42;;
75866;SDS011;64513;56.258;43.980;2022-11-20T05:00:50;10.70;;;3.58;;
75866;SDS011;64513;56.258;43.980;2022-11-20T05:03:14;11.53;;;3.40;;
75866;SDS011;64513;56.258;43.980;2022-11-20T05:05:38;9.33;;;3.60;;
75866;SDS011;64513;56.258;43.980;2022-11-20T05:08:03;9.98;;;3.45;;
75866;SDS011;64513;56.258;43.980;2022-11-20T05:10:27;10.15;;;3.67;;
75866;SDS011;64513;56.258;43.980;2022-11-20T05:12:51;9.63;;;3.22;;
75866;SDS011;64513;56.258;43.980;2022-11-20T05:15:15;10.43;;;3.67;;
75866;SDS011;64513;56.258;43.980;2022-11-20T05:17:40;10.38;;;3.83;;
75866;SDS011;64513;56.258;43.980;2022-11-20T05:20:04;9.60;;;3.80;;
75866;SDS011;64513;56.258;43.980;2022-11-20T05:22:29;11.80;;;4.00;;
75866;SDS011;64513;56.258;43.980;2022-11-20T05:24:53;10.82;;;4.03;;
75866;SDS011;64513;56.258;43.980;2022-11-20T05:27:17;8.70;;;3.30;;
75866;SDS011;64513;56.258;43.980;2022-11-20T05:29:41;9.15;;;3.52;;
75866;SDS011;64513;56.258;43.980;2022-11-20T05:32:05;10.50;;;3.87;;
75866;SDS011;64513;56.258;43.980;2022-11-20T05:34:30;9.55;;;3.62;;
75866;SDS011;64513;56.258;43.980;2022-11-20T05:36:54;9.78;;;3.52;;
75866;SDS011;64513;56.258;43.980;2022-11-20T05:39:18;13.53;;;4.33;;
75866;SDS011;64513;56.258;43.980;2022-11-20T05:41:43;16.90;;;3.37;;
75866;SDS011;64513;56.258;43.980;2022-11-20T05:46:52;8.75;;;3.10;;
75866;SDS011;64513;56.258;43.980;2022-11-20T05:49:17;14.00;;;3.40;;
75866;SDS011;64513;56.258;43.980;2022-11-20T05:51:41;9.20;;;2.70;;
75866;SDS011;64513;56.258;43.980;2022-11-20T05:54:05;9.78;;;3.47;;
75866;SDS011;64513;56.258;43.980;2022-11-20T05:56:29;10.93;;;3.33;;
75866;SDS011;64513;56.258;43.980;2022-11-20T05:58:53;12.75;;;3.22;;
75866;SDS011;64513;56.258;43.980;2022-11-20T06:01:18;11.22;;;3.00;;
75866;SDS011;64513;56.258;43.980;2022-11-20T06:03:44;8.63;;;2.90;;
75866;SDS011;64513;56.258;43.980;2022-11-20T06:06:11;7.33;;;2.85;;
75866;SDS011;64513;56.258;43.980;2022-11-20T06:08:35;9.73;;;2.98;;
75866;SDS011;64513;56.258;43.980;2022-11-20T06:11:33;9.30;;;2.90;;
75866;SDS011;64513;56.258;43.980;2022-11-20T06:13:45;9.58;;;3.45;;
75866;SDS011;64513;56.258;43.980;2022-11-20T06:16:10;9.20;;;3.37;;
75866;SDS011;64513;56.258;43.980;2022-11-20T06:18:36;10.00;;;3.67;;
75866;SDS011;64513;56.258;43.980;2022-11-20T06:21:33;11.10;;;3.17;;
75866;SDS011;64513;56.258;43.980;2022-11-20T06:23:47;10.85;;;3.15;;
75866;SDS011;64513;56.258;43.980;2022-11-20T06:26:13;10.63;;;3.67;;
75866;SDS011;64513;56.258;43.980;2022-11-20T06:28:39;8.60;;;3.10;;
75866;SDS011;64513;56.258;43.980;2022-11-20T06:31:04;11.65;;;3.50;;
75866;SDS011;64513;56.258;43.980;2022-11-20T06:33:30;10.28;;;3.27;;
75866;SDS011;64513;56.258;43.980;2022-11-20T06:38:20;8.80;;;3.55;;
75866;SDS011;64513;56.258;43.980;2022-11-20T06:40:44;7.30;;;3.10;;
75866;SDS011;64513;56.258;43.980;2022-11-20T06:43:09;10.13;;;3.58;;
75866;SDS011;64513;56.258;43.980;2022-11-20T06:45:33;8.33;;;3.17;;
75866;SDS011;64513;56.258;43.980;2022-11-20T06:47:57;9.28;;;3.87;;
75866;SDS011;64513;56.258;43.980;2022-11-20T06:50:22;11.15;;;3.65;;
75866;SDS011;64513;56.258;43.980;2022-11-20T06:52:46;9.63;;;3.77;;
75866;SDS011;64513;56.258;43.980;2022-11-20T06:55:10;11.28;;;4.05;;
75866;SDS011;64513;56.258;43.980;2022-11-20T06:57:34;9.35;;;3.33;;
75866;SDS011;64513;56.258;43.980;2022-11-20T06:59:59;10.00;;;3.80;;
75866;SDS011;64513;56.258;43.980;2022-11-20T07:02:24;10.28;;;3.10;;
75866;SDS011;64513;56.258;43.980;2022-11-20T07:04:48;10.07;;;3.40;;
75866;SDS011;64513;56.258;43.980;2022-11-20T07:07:13;9.28;;;3.62;;
75866;SDS011;64513;56.258;43.980;2022-11-20T07:09:37;12.28;;;3.98;;
75866;SDS011;64513;56.258;43.980;2022-11-20T07:12:01;8.28;;;3.42;;
75866;SDS011;64513;56.258;43.980;2022-11-20T07:14:25;9.68;;;3.72;;
75866;SDS011;64513;56.258;43.980;2022-11-20T07:16:49;10.20;;;3.90;;
75866;SDS011;64513;56.258;43.980;2022-11-20T07:19:14;11.97;;;4.08;;
75866;SDS011;64513;56.258;43.980;2022-11-20T07:21:38;11.80;;;3.90;;
75866;SDS011;64513;56.258;43.980;2022-11-20T07:24:02;9.23;;;3.50;;
75866;SDS011;64513;56.258;43.980;2022-11-20T07:26:27;10.15;;;3.67;;
75866;SDS011;64513;56.258;43.980;2022-11-20T07:28:51;9.83;;;3.70;;
75866;SDS011;64513;56.258;43.980;2022-11-20T07:31:17;9.15;;;3.60;;
75866;SDS011;64513;56.258;43.980;2022-11-20T07:33:41;10.30;;;3.80;;
75866;SDS011;64513;56.258;43.980;2022-11-20T07:36:06;10.10;;;4.05;;
75866;SDS011;64513;56.258;43.980;2022-11-20T07:38:30;9.03;;;3.75;;
75866;SDS011;64513;56.258;43.980;2022-11-20T07:40:55;12.57;;;4.33;;
75866;SDS011;64513;56.258;43.980;2022-11-20T07:43:21;12.82;;;4.72;;
75866;SDS011;64513;56.258;43.980;2022-11-20T07:45:45;12.13;;;4.40;;
75866;SDS011;64513;56.258;43.980;2022-11-20T07:48:09;13.68;;;5.08;;
75866;SDS011;64513;56.258;43.980;2022-11-20T07:50:34;14.63;;;4.90;;
75866;SDS011;64513;56.258;43.980;2022-11-20T07:55:42;14.03;;;5.10;;
75866;SDS011;64513;56.258;43.980;2022-11-20T07:58:06;14.03;;;5.08;;
75866;SDS011;64513;56.258;43.980;2022-11-20T08:00:30;12.18;;;4.90;;
75866;SDS011;64513;56.258;43.980;2022-11-20T08:02:54;16.60;;;4.62;;
75866;SDS011;64513;56.258;43.980;2022-11-20T08:05:19;13.20;;;4.87;;
75866;SDS011;64513;56.258;43.980;2022-11-20T08:10:28;14.25;;;4.85;;
75866;SDS011;64513;56.258;43.980;2022-11-20T08:13:12;13.95;;;5.12;;
75866;SDS011;64513;56.258;43.980;2022-11-20T08:15:56;13.08;;;4.92;;
75866;SDS011;64513;56.258;43.980;2022-11-20T08:18:20;15.27;;;5.57;;
75866;SDS011;64513;56.258;43.980;2022-11-20T08:20:44;14.30;;;5.33;;
75866;SDS011;64513;56.258;43.980;2022-11-20T08:23:09;13.68;;;4.95;;
75866;SDS011;64513;56.258;43.980;2022-11-20T08:25:34;11.57;;;5.05;;
75866;SDS011;64513;56.258;43.980;2022-11-20T08:28:00;14.65;;;5.25;;
75866;SDS011;64513;56.258;43.980;2022-11-20T08:30:26;12.93;;;4.80;;
75866;SDS011;64513;56.258;43.980;2022-11-20T08:32:50;13.55;;;4.83;;
75866;SDS011;64513;56.258;43.980;2022-11-20T08:35:15;14.45;;;5.22;;
75866;SDS011;64513;56.258;43.980;2022-11-20T08:37:39;12.95;;;4.85;;
75866;SDS011;64513;56.258;43.980;2022-11-20T08:40:03;15.60;;;5.08;;
75866;SDS011;64513;56.258;43.980;2022-11-20T08:42:28;14.60;;;4.73;;
75866;SDS011;64513;56.258;43.980;2022-11-20T08:44:53;13.00;;;5.22;;
75866;SDS011;64513;56.258;43.980;2022-11-20T08:47:17;15.60;;;5.42;;
75866;SDS011;64513;56.258;43.980;2022-11-20T08:49:41;17.62;;;5.60;;
75866;SDS011;64513;56.258;43.980;2022-11-20T08:52:05;12.95;;;5.17;;
75866;SDS011;64513;56.258;43.980;2022-11-20T08:54:29;13.20;;;5.20;;
75866;SDS011;64513;56.258;43.980;2022-11-20T08:56:54;11.90;;;5.05;;
75866;SDS011;64513;56.258;43.980;2022-11-20T08:59:18;13.72;;;5.17;;
75866;SDS011;64513;56.258;43.980;2022-11-20T09:01:42;16.87;;;5.15;;
75866;SDS011;64513;56.258;43.980;2022-11-20T09:04:07;14.60;;;5.75;;
75866;SDS011;64513;56.258;43.980;2022-11-20T09:06:32;15.73;;;6.03;;
75866;SDS011;64513;56.258;43.980;2022-11-20T09:08:56;14.58;;;5.90;;
75866;SDS011;64513;56.258;43.980;2022-11-20T09:14:05;16.12;;;5.37;;
75866;SDS011;64513;56.258;43.980;2022-11-20T09:16:29;17.87;;;5.92;;
75866;SDS011;64513;56.258;43.980;2022-11-20T09:18:54;16.37;;;5.47;;
75866;SDS011;64513;56.258;43.980;2022-11-20T09:21:38;16.50;;;6.12;;
75866;SDS011;64513;56.258;43.980;2022-11-20T09:24:02;14.45;;;5.60;;
75866;SDS011;64513;56.258;43.980;2022-11-20T09:26:27;14.47;;;5.65;;
75866;SDS011;64513;56.258;43.980;2022-11-20T09:28:52;15.40;;;5.72;;
75866;SDS011;64513;56.258;43.980;2022-11-20T09:31:49;19.17;;;6.07;;
75866;SDS011;64513;56.258;43.980;2022-11-20T09:34:02;13.62;;;4.72;;
75866;SDS011;64513;56.258;43.980;2022-11-20T09:36:26;17.82;;;6.00;;
75866;SDS011;64513;56.258;43.980;2022-11-20T09:38:50;13.83;;;5.62;;
75866;SDS011;64513;56.258;43.980;2022-11-20T09:55:59;15.40;;;5.55;;
75866;SDS011;64513;56.258;43.980;2022-11-20T10:04:19;14.90;;;4.97;;
75866;SDS011;64513;56.258;43.980;2022-11-20T10:10:04;13.78;;;4.90;;
75866;SDS011;64513;56.258;43.980;2022-11-20T10:31:59;12.53;;;4.83;;
75866;SDS011;64513;56.258;43.980;2022-11-20T10:37:47;16.73;;;5.83;;
75866;SDS011;64513;56.258;43.980;2022-11-20T10:48:48;15.43;;;5.25;;
75866;SDS011;64513;56.258;43.980;2022-11-20T12:02:29;15.20;;;5.80;;
75866;SDS011;64513;56.258;43.980;2022-11-20T12:04:54;16.17;;;5.53;;
75866;SDS011;64513;56.258;43.980;2022-11-20T12:07:27;14.35;;;5.65;;
75866;SDS011;64513;56.258;43.980;2022-11-20T12:09:48;20.48;;;6.55;;
75866;SDS011;64513;56.258;43.980;2022-11-20T12:18:07;14.55;;;5.75;;
75866;SDS011;64513;56.258;43.980;2022-11-20T13:17:20;13.53;;;5.37;;
75866;SDS011;64513;56.258;43.980;2022-11-20T13:20:05;14.80;;;5.75;;
75866;SDS011;64513;56.258;43.980;2022-11-20T13:28:04;16.27;;;5.90;;
75866;SDS011;64513;56.258;43.980;2022-11-20T13:30:49;14.60;;;5.65;;
75866;SDS011;64513;56.258;43.980;2022-11-20T13:36:03;15.83;;;5.97;;
75866;SDS011;64513;56.258;43.980;2022-11-20T13:38:39;17.48;;;6.37;;
75866;SDS011;64513;56.258;43.980;2022-11-20T13:47:17;14.87;;;5.80;;
75866;SDS011;64513;56.258;43.980;2022-11-20T13:49:50;13.80;;;5.17;;
75866;SDS011;64513;56.258;43.980;2022-11-20T14:01:29;18.15;;;6.35;;
75866;SDS011;64513;56.258;43.980;2022-11-20T14:03:55;16.80;;;6.08;;
75866;SDS011;64513;56.258;43.980;2022-11-20T14:12:28;17.00;;;6.10;;
75866;SDS011;64513;56.258;43.980;2022-11-20T14:14:54;16.55;;;5.90;;
75866;SDS011;64513;56.258;43.980;2022-11-20T14:17:20;15.00;;;5.80;;
75866;SDS011;64513;56.258;43.980;2022-11-20T14:19:46;18.35;;;6.08;;
75866;SDS011;64513;56.258;43.980;2022-11-20T14:33:17;14.15;;;5.55;;
75866;SDS011;64513;56.258;43.980;2022-11-20T14:38:31;18.30;;;6.10;;
75866;SDS011;64513;56.258;43.980;2022-11-20T14:41:26;14.75;;;5.37;;
75866;SDS011;64513;56.258;43.980;2022-11-20T14:43:44;15.23;;;6.05;;
75866;SDS011;64513;56.258;43.980;2022-11-20T14:46:09;15.65;;;6.33;;
75866;SDS011;64513;56.258;43.980;2022-11-20T14:49:09;17.37;;;6.07;;
75866;SDS011;64513;56.258;43.980;2022-11-20T15:02:59;15.87;;;5.67;;
75866;SDS011;64513;56.258;43.980;2022-11-20T15:05:25;15.23;;;6.00;;
75866;SDS011;64513;56.258;43.980;2022-11-20T15:10:35;16.27;;;5.33;;
75866;SDS011;64513;56.258;43.980;2022-11-20T15:17:56;15.40;;;5.97;;
75866;SDS011;64513;56.258;43.980;2022-11-20T15:20:21;13.75;;;5.55;;
75866;SDS011;64513;56.258;43.980;2022-11-20T15:22:48;18.52;;;5.65;;
75866;SDS011;64513;56.258;43.980;2022-11-20T15:27:56;15.27;;;4.63;;
75866;SDS011;64513;56.258;43.980;2022-11-20T15:30:21;17.12;;;5.40;;
75866;SDS011;64513;56.258;43.980;2022-11-20T15:32:46;19.23;;;5.67;;
75866;SDS011;64513;56.258;43.980;2022-11-20T15:35:11;11.22;;;4.58;;
75866;SDS011;64513;56.258;43.980;2022-11-20T15:40:22;15.13;;;4.73;;
75866;SDS011;64513;56.258;43.980;2022-11-20T15:42:47;12.40;;;4.42;;
75866;SDS011;64513;56.258;43.980;2022-11-20T15:45:33;13.25;;;5.47;;
75866;SDS011;64513;56.258;43.980;2022-11-20T15:47:59;11.48;;;4.72;;
75866;SDS011;64513;56.258;43.980;2022-11-20T15:50:25;11.80;;;4.50;;
75866;SDS011;64513;56.258;43.980;2022-11-20T15:53:10;11.40;;;5.20;;
75866;SDS011;64513;56.258;43.980;2022-11-20T15:55:35;13.18;;;5.12;;
75866;SDS011;64513;56.258;43.980;2022-11-20T15:58:00;12.63;;;4.55;;
75866;SDS011;64513;56.258;43.980;2022-11-20T16:00:25;13.18;;;4.70;;
75866;SDS011;64513;56.258;43.980;2022-11-20T16:02:51;13.00;;;5.40;;
75866;SDS011;64513;56.258;43.980;2022-11-20T16:05:15;15.40;;;5.40;;
75866;SDS011;64513;56.258;43.980;2022-11-20T16:07:41;15.70;;;5.20;;
75866;SDS011;64513;56.258;43.980;2022-11-20T16:10:06;15.18;;;5.42;;
75866;SDS011;64513;56.258;43.980;2022-11-20T16:12:31;14.10;;;5.67;;
75866;SDS011;64513;56.258;43.980;2022-11-20T16:15:15;12.78;;;5.05;;
75866;SDS011;64513;56.258;43.980;2022-11-20T16:17:59;14.97;;;5.10;;
75866;SDS011;64513;56.258;43.980;2022-11-20T16:20:23;14.38;;;4.47;;
75866;SDS011;64513;56.258;43.980;2022-11-20T16:22:47;12.73;;;5.37;;
75866;SDS011;64513;56.258;43.980;2022-11-20T16:27:56;12.78;;;4.58;;
75866;SDS011;64513;56.258;43.980;2022-11-20T16:30:21;12.20;;;4.70;;
75866;SDS011;64513;56.258;43.980;2022-11-20T16:32:45;13.00;;;4.83;;
75866;SDS011;64513;56.258;43.980;2022-11-20T16:35:09;13.70;;;5.03;;
75866;SDS011;64513;56.258;43.980;2022-11-20T16:37:33;13.53;;;4.80;;
75866;SDS011;64513;56.258;43.980;2022-11-20T16:39:58;12.07;;;4.60;;
75866;SDS011;64513;56.258;43.980;2022-11-20T16:42:22;13.70;;;4.97;;
75866;SDS011;64513;56.258;43.980;2022-11-20T16:44:46;12.33;;;4.95;;
75866;SDS011;64513;56.258;43.980;2022-11-20T16:47:10;14.18;;;5.40;;
75866;SDS011;64513;56.258;43.980;2022-11-20T16:49:34;13.60;;;5.10;;
75866;SDS011;64513;56.258;43.980;2022-11-20T16:51:59;13.48;;;5.28;;
75866;SDS011;64513;56.258;43.980;2022-11-20T16:54:23;11.00;;;4.77;;
75866;SDS011;64513;56.258;43.980;2022-11-20T16:56:47;15.03;;;5.00;;
75866;SDS011;64513;56.258;43.980;2022-11-20T16:59:13;13.95;;;4.72;;
75866;SDS011;64513;56.258;43.980;2022-11-20T17:01:37;14.98;;;5.45;;
75866;SDS011;64513;56.258;43.980;2022-11-20T17:04:05;14.40;;;5.30;;
75866;SDS011;64513;56.258;43.980;2022-11-20T17:06:30;14.87;;;5.13;;
75866;SDS011;64513;56.258;43.980;2022-11-20T17:08:56;15.55;;;5.40;;
75866;SDS011;64513;56.258;43.980;2022-11-20T17:11:21;15.72;;;5.85;;
75866;SDS011;64513;56.258;43.980;2022-11-20T17:13:45;14.38;;;5.17;;
75866;SDS011;64513;56.258;43.980;2022-11-20T17:16:12;15.20;;;5.47;;
75866;SDS011;64513;56.258;43.980;2022-11-20T17:18:37;13.77;;;5.33;;
75866;SDS011;64513;56.258;43.980;2022-11-20T17:21:01;16.12;;;5.12;;
75866;SDS011;64513;56.258;43.980;2022-11-20T17:23:27;14.28;;;5.15;;
75866;SDS011;64513;56.258;43.980;2022-11-20T17:25:51;15.00;;;6.00;;
75866;SDS011;64513;56.258;43.980;2022-11-20T17:28:15;15.95;;;5.80;;
75866;SDS011;64513;56.258;43.980;2022-11-20T17:30:39;15.47;;;5.70;;
75866;SDS011;64513;56.258;43.980;2022-11-20T17:33:03;14.38;;;5.30;;
75866;SDS011;64513;56.258;43.980;2022-11-20T17:35:28;14.75;;;5.40;;
75866;SDS011;64513;56.258;43.980;2022-11-20T17:37:52;14.07;;;5.35;;
75866;SDS011;64513;56.258;43.980;2022-11-20T17:40:16;13.22;;;5.75;;
75866;SDS011;64513;56.258;43.980;2022-11-20T17:42:40;16.43;;;6.17;;
75866;SDS011;64513;56.258;43.980;2022-11-20T17:45:05;15.55;;;6.45;;
75866;SDS011;64513;56.258;43.980;2022-11-20T17:47:30;16.25;;;5.90;;
75866;SDS011;64513;56.258;43.980;2022-11-20T17:49:58;14.80;;;5.92;;
75866;SDS011;64513;56.258;43.980;2022-11-20T17:52:22;14.85;;;5.40;;
75866;SDS011;64513;56.258;43.980;2022-11-20T17:54:46;15.93;;;5.27;;
75866;SDS011;64513;56.258;43.980;2022-11-20T17:57:13;15.08;;;5.80;;
75866;SDS011;64513;56.258;43.980;2022-11-20T17:59:57;14.70;;;5.62;;
75866;SDS011;64513;56.258;43.980;2022-11-20T18:02:22;18.57;;;6.05;;
75866;SDS011;64513;56.258;43.980;2022-11-20T18:04:48;14.85;;;5.60;;
75866;SDS011;64513;56.258;43.980;2022-11-20T18:07:13;16.53;;;5.73;;
75866;SDS011;64513;56.258;43.980;2022-11-20T18:09:37;16.23;;;5.87;;
75866;SDS011;64513;56.258;43.980;2022-11-20T18:12:01;13.30;;;5.72;;
75866;SDS011;64513;56.258;43.980;2022-11-20T18:14:25;15.55;;;5.50;;
75866;SDS011;64513;56.258;43.980;2022-11-20T18:17:11;17.87;;;6.03;;
75866;SDS011;64513;56.258;43.980;2022-11-20T18:22:22;15.10;;;5.85;;
75866;SDS011;64513;56.258;43.980;2022-11-20T18:24:48;16.02;;;6.30;;
75866;SDS011;64513;56.258;43.980;2022-11-20T18:27:13;16.40;;;6.08;;
75866;SDS011;64513;56.258;43.980;2022-11-20T18:29:39;16.67;;;6.15;;
75866;SDS011;64513;56.258;43.980;2022-11-20T18:32:03;16.07;;;6.20;;
75866;SDS011;64513;56.258;43.980;2022-11-20T18:34:28;15.72;;;5.72;;
75866;SDS011;64513;56.258;43.980;2022-11-20T18:36:52;19.57;;;6.22;;
75866;SDS011;64513;56.258;43.980;2022-11-20T18:39:16;16.62;;;6.60;;
75866;SDS011;64513;56.258;43.980;2022-11-20T18:41:41;16.42;;;6.28;;
75866;SDS011;64513;56.258;43.980;2022-11-20T18:44:27;21.23;;;7.07;;
75866;SDS011;64513;56.258;43.980;2022-11-20T18:47:13;15.93;;;5.95;;
75866;SDS011;64513;56.258;43.980;2022-11-20T18:49:59;20.55;;;6.67;;
75866;SDS011;64513;56.258;43.980;2022-11-20T18:52:26;15.48;;;5.62;;
75866;SDS011;64513;56.258;43.980;2022-11-20T18:55:12;17.27;;;6.33;;
75866;SDS011;64513;56.258;43.980;2022-11-20T18:57:36;15.90;;;5.47;;
75866;SDS011;64513;56.258;43.980;2022-11-20T19:00:00;19.02;;;6.35;;
75866;SDS011;64513;56.258;43.980;2022-11-20T19:02:27;26.77;;;7.20;;
75866;SDS011;64513;56.258;43.980;2022-11-20T19:04:51;19.17;;;6.42;;
75866;SDS011;64513;56.258;43.980;2022-11-20T19:07:16;18.27;;;5.67;;
75866;SDS011;64513;56.258;43.980;2022-11-20T19:09:41;17.10;;;6.43;;
75866;SDS011;64513;56.258;43.980;2022-11-20T19:12:07;14.65;;;5.72;;
75866;SDS011;64513;56.258;43.980;2022-11-20T19:14:33;18.27;;;5.95;;
75866;SDS011;64513;56.258;43.980;2022-11-20T19:16:57;15.03;;;5.45;;
75866;SDS011;64513;56.258;43.980;2022-11-20T19:19:21;17.37;;;5.87;;
75866;SDS011;64513;56.258;43.980;2022-11-20T19:21:46;16.97;;;6.00;;
75866;SDS011;64513;56.258;43.980;2022-11-20T19:24:10;17.57;;;6.20;;
75866;SDS011;64513;56.258;43.980;2022-11-20T19:26:35;17.52;;;5.95;;
75866;SDS011;64513;56.258;43.980;2022-11-20T19:28:59;16.45;;;5.05;;
75866;SDS011;64513;56.258;43.980;2022-11-20T19:31:25;16.23;;;5.97;;
75866;SDS011;64513;56.258;43.980;2022-11-20T19:36:36;19.45;;;6.40;;